Flight Track Log - Related Links

Times and Time Zones

All times are in EDT time to prevent confusion due to time zone crossing. See the GJS3706 flight status page for this flight to view local times or setup timezone preferences in your user account.

Time Position Orientation Groundspeed Altitude Reporting Facility
EDT Latitude Longitude Course Direction KTS MPH feet Rate Location/Type
Wed 07:32:29 PM 39.8833 -104.6167 113° Southeast 170 196 6,100  Level Denver TRACON
Wed 07:33:23 PM 39.8667 -104.5667 113° Southeast 196 226 7,700 1,842 Climbing Denver TRACON
Wed 07:34:23 PM 39.8333 -104.4833 117° Southeast 247 284 9,600 1,882 Climbing Denver TRACON
Wed 07:35:05 PM 39.8181 -104.4200 107° East 269 310 10,900 1,731 Climbing Denver Center
Wed 07:36:07 PM 39.7797 -104.3094 114° Southeast 310 357 12,600 1,306 Climbing Denver Center
Wed 07:37:09 PM 39.7392 -104.1917 114° Southeast 357 411 13,600 1,113 Climbing Denver Center
Wed 07:38:11 PM 39.6925 -104.0625 115° Southeast 393 452 14,900 1,500 Climbing Denver Center
Wed 07:39:13 PM 39.6422 -103.9167 114° Southeast 413 475 16,700 1,536 Climbing Denver Center
Wed 07:40:16 PM 39.5867 -103.7831 118° Southeast 422 486 18,100 1,248 Climbing Denver Center
Wed 07:41:18 PM 39.5525 -103.6486 108° East 415 478 19,300 1,403 Climbing Denver Center
Wed 07:42:20 PM 39.5058 -103.4675 108° East 440 506 21,000 1,500 Climbing Denver Center
Wed 07:43:22 PM 39.4653 -103.3136 109° East 450 518 22,400 1,306 Climbing Denver Center
Wed 07:44:24 PM 39.4239 -103.1606 109° East 452 520 23,700 1,161 Climbing Denver Center
Wed 07:45:26 PM 39.3819 -103.0031 109° East 462 532 24,800 1,113 Climbing Denver Center
Wed 07:46:28 PM 39.3389 -102.8444 109° East 467 537 26,000 1,065 Climbing Denver Center
Wed 07:47:30 PM 39.2900 -102.6619 109° East 474 545 27,000 484 Climbing Denver Center
Wed 07:48:32 PM 39.2469 -102.5069 110° East 479 551 27,000  Level Denver Center
Wed 07:49:34 PM 39.1975 -102.3247 109° East 481 554 27,000  Level Denver Center
Wed 07:50:36 PM 39.1544 -102.1669 109° East 486 559 27,000  Level Denver Center
Wed 07:51:38 PM 39.0819 -101.9936 118° Southeast 493 567 27,000  Level Denver Center
Wed 07:52:40 PM 39.0197 -101.8464 119° Southeast 491 565 27,000  Level Denver Center
Wed 07:53:42 PM 38.9461 -101.6722 118° Southeast 494 568 27,000  Level Denver Center
Wed 07:54:45 PM 38.8831 -101.5272 119° Southeast 489 563 27,000  Level Denver Center
Wed 07:55:47 PM 38.8097 -101.3553 119° Southeast 490 564 27,000  Level Denver Center
Wed 07:56:48 PM 38.7556 -101.2336 120° Southeast 492 566 27,000  Level Denver Center
Wed 07:57:51 PM 38.6808 -101.0625 119° Southeast 492 566 27,000  Level Denver Center
Wed 07:58:53 PM 38.6056 -100.8942 120° Southeast 489 563 27,000  Level Denver Center
Wed 07:59:56 PM 38.5314 -100.7256 119° Southeast 486 559 27,000  Level Denver Center
Wed 08:00:58 PM 38.4675 -100.5842 120° Southeast 480 552 27,000  Level Denver Center
Wed 08:01:46 PM 38.4150 -100.4661 120° Southeast 474 545 27,000  Level Kansas City Center
Wed 08:02:48 PM 38.3525 -100.3283 120° Southeast 470 541 27,000  Level Kansas City Center
Wed 08:03:50 PM 38.2789 -100.1681 120° Southeast 468 539 27,000  Level Kansas City Center
Wed 08:04:52 PM 38.2153 -100.0278 120° Southeast 473 544 27,000  Level Kansas City Center
Wed 08:05:54 PM 38.1411 -99.8653 120° Southeast 475 547 27,000  Level Kansas City Center
Wed 08:06:56 PM 38.0769 -99.7256 120° Southeast 476 548 27,000  Level Kansas City Center
Wed 08:07:58 PM 38.0011 -99.5633 121° Southeast 476 548 27,000  Level Kansas City Center
Wed 08:09:00 PM 37.9400 -99.4333 121° Southeast 478 550 27,000  Level Kansas City Center
Wed 08:10:01 PM 37.8731 -99.2889 120° Southeast 479 551 27,000  Level Kansas City Center
Wed 08:11:03 PM 37.8058 -99.1458 121° Southeast 476 548 27,000  Level Kansas City Center
Wed 08:12:05 PM 37.7244 -98.9722 121° Southeast 478 550 27,000  Level Kansas City Center
Wed 08:13:07 PM 37.6558 -98.8281 121° Southeast 480 552 27,000  Level Kansas City Center
Wed 08:14:09 PM 37.5867 -98.6833 121° Southeast 483 556 27,000  Level Kansas City Center
Wed 08:15:11 PM 37.5192 -98.5397 121° Southeast 482 555 27,000  Level Kansas City Center
Wed 08:16:13 PM 37.4494 -98.3969 122° Southeast 482 555 27,000  Level Kansas City Center
Wed 08:17:15 PM 37.3808 -98.2536 121° Southeast 482 555 27,000  Level Kansas City Center
Wed 08:18:17 PM 37.2978 -98.0836 122° Southeast 480 552 27,000  Level Kansas City Center
Wed 08:19:18 PM 37.2278 -97.9403 121° Southeast 482 555 27,000  Level Kansas City Center
Wed 08:20:20 PM 37.1583 -97.7981 121° Southeast 481 554 27,000  Level Kansas City Center
Wed 08:21:22 PM 37.0878 -97.6547 122° Southeast 483 556 27,000 -145 Level Kansas City Center
Wed 08:22:24 PM 37.0192 -97.5089 120° Southeast 487 560 26,700 -1,452 Descending Kansas City Center
Wed 08:23:26 PM 36.9500 -97.3642 121° Southeast 488 562 24,000 -3,073 Descending Kansas City Center
Wed 08:24:27 PM 36.8692 -97.2011 122° Southeast 469 540 20,400 -3,268 Descending Kansas City Center
Wed 08:25:29 PM 36.8017 -97.0706 123° Southeast 442 509 17,300 -2,855 Descending Kansas City Center
Wed 08:26:31 PM 36.7414 -96.9500 122° Southeast 416 479 14,500 -2,419 Descending Kansas City Center
Wed 08:27:33 PM 36.6836 -96.8347 122° Southeast 401 461 12,300 -1,839 Descending Kansas City Center
Wed 08:28:35 PM 36.6253 -96.7236 123° Southeast 392 451 10,700 -1,100 Descending Kansas City Center
Wed 08:29:33 PM 36.5714 -96.6122 121° Southeast 367 422 10,100 -390 Descending Kansas City Center
Wed 08:30:38 PM 36.5189 -96.5156 124° Southeast 364 419 9,900 -661 Descending Kansas City Center
Wed 08:31:40 PM 36.4883 -96.4256 113° Southeast 314 361 8,700 -1,403 Descending Kansas City Center
Wed 08:32:42 PM 36.4539 -96.3194 112° Southeast 289 333 7,000 -1,306 Descending Kansas City Center
Wed 08:33:44 PM 36.4267 -96.2367 112° Southeast 274 315 6,000 -677 Descending Kansas City Center
Wed 08:34:46 PM 36.4011 -96.1592 112° Southeast 258 297 5,600 -1,113 Descending Kansas City Center
Wed 08:35:48 PM 36.3756 -96.0831 113° Southeast 246 283 3,700 -1,512 Descending Kansas City Center
Wed 08:36:49 PM 36.3492 -96.0022 112° Southeast 248 285 2,500 -585 Descending Kansas City Center
Wed 08:37:51 PM 36.3258 -95.9314 112° Southeast 237 273 2,500 -97 Level Kansas City Center
Wed 08:38:53 PM 36.3008 -95.8831 123° Southeast 204 235 2,300 -472 Descending Kansas City Center
Wed 08:39:58 PM 36.2553 -95.8789 176° South 127 146 1,500 -726 Descending Kansas City Center
Wed 08:40:57 PM 36.2169 -95.8808 182° South 142 163 800 -712 Descending Kansas City Center
Wed 08:42:00 PM 36.1984 -95.8881 187° South  Level Estimated
Wed 08:49:00 PM 36.1984 -95.8881 187° South  Level Estimated

Login

Don't have an account? Register now (free) for customized features, flight alerts, and more!